New York, New York
Traffic Map
Current Weather Conditions
New York, New York
Clear
Clear
19°
Feels Like: 19°
Wind Chill: 19° Ceiling: Unl
Heat Index: 19° Visibility: 10mi
Dew Point: 13° Wind: 7mph
Humidity: 68% Direction: 40° (NE)
Pressure: 30.02in Gusts: 0mph
Raw Report DataKJRB 301055Z AUTO 04006KT 10SM CLR 19/13 A3002 RMK AO1
Traffic Incident Summary
Active as of:
Severity:
Category:
InformationThere was an issue retrieving the traffic information for this location. Please try a different location or try again shortly.
Advertisements
Track Severe Weather on mobile